Sipesville, PA (15561)

11:14 AM EDT on July 30, 2015 (GMT -0400)
APRSWXNET | | Change Station
CLOSE
Current Station
Personal Weather Station
Location: Sipesville, PA
Elevation: 1970 ft
Nearby Weather Stations

Elev 1970 ft 40.12 °N, 79.10 °W | Updated 15 minutes ago

Overcast
Overcast
74 °F
Feels Like 73 °F
N
2
Wind Variable Wind from SW
Gusts 5.0 mph

Today
High -- | Low -- °F
--% Chance of Precip.
Yesterday
High -- | Low -- °F
Precip. -- in
6:12 AM 8:32 PM
Waxing Gibbous, 99% visible
Pressure 29.99 in
Visibility 10.0 miles
Clouds Scattered Clouds 10000 ft
Heat Index 73 °F
Dew Point 70 °F
Humidity 87%
Rainfall in
Snow Depth Not available.
UV 6 out of 12
Pollen 6.20 out of 12
Air Quality Not available.
Flu Activity Not available.
METAR KLBE 301445Z 00000KT 10SM SCT100 25/15 A2999

More Conditions Fewer Conditions

Pressure 29.99 in
Visibility 10.0 miles
Clouds Scattered Clouds 10000 ft
Heat Index 73 °F
Dew Point 70 °F
Humidity 87%
Rainfall in
Snow Depth Not available.
UV 6 out of 12
Pollen 6.20 out of 12
Air Quality Not available.
Flu Activity Not available.
METAR KLBE 301445Z 00000KT 10SM SCT100 25/15 A2999

More Conditions Fewer Conditions

Nowcast | as of 8:38 am EDT on July 30, 2015

A band of showers near a Williamsport...Lewistown...Bedford line at 830 am...will continue to move eastward across the Susquehanna valley this morning. A rumble of thunder will be possible. The showers are moving east at 25 mph...and the leading edge of the activity will be near a Tamaqua...Gettysburg line by 1130 am. Some showers will contain heavy downpours.

×

10-Day Weather Forecast

×

Almanac

Astronomy

Jul. 30, 2015 Rise Set
Actual Time
Civil Twilight
Nautical Twilight
Astronomical Twilight
Moon
Length of Visible Light
Length of Day
Tomorrow will be .
, % of the Moon is Illuminated

Today's Extremes

State Highs State Lows

Community

WunderPhotos

Upload Photos

1,842,403 photos uploaded!

WunderBlogs® & News

Nearby

Air Quality

  Air Quality AQ Index Pollutant
Not available.

Snow Depth

Station Depth Elevation

Earthquake Activity

City Distance Mag. Time & Date
Minimum magnitude displayed is 2.5.

Coastal Water Temperatures

Place Temperature

Stations

Nearby Weather Stations

Station Location Temp. Windchill Dew Point Humidity Wind Precip. Elev Updated Type